sensor_id;sensor_type;location;lat;lon;timestamp;temperature;humidity
11079;DHT22;5592;49.234;7.268;2024-02-23T00:01:47;6.20;99.90
11079;DHT22;5592;49.234;7.268;2024-02-23T00:04:13;6.30;99.90
11079;DHT22;5592;49.234;7.268;2024-02-23T00:06:39;6.30;99.90
11079;DHT22;5592;49.234;7.268;2024-02-23T00:09:04;6.30;99.90
11079;DHT22;5592;49.234;7.268;2024-02-23T00:11:30;6.30;99.90
11079;DHT22;5592;49.234;7.268;2024-02-23T00:13:58;6.30;99.90
11079;DHT22;5592;49.234;7.268;2024-02-23T00:16:24;6.40;99.90
11079;DHT22;5592;49.234;7.268;2024-02-23T00:18:50;6.40;99.90
11079;DHT22;5592;49.234;7.268;2024-02-23T00:21:15;6.40;99.90
11079;DHT22;5592;49.234;7.268;2024-02-23T00:23:41;6.40;99.90
11079;DHT22;5592;49.234;7.268;2024-02-23T00:26:07;6.40;99.90
11079;DHT22;5592;49.234;7.268;2024-02-23T00:28:34;6.40;99.90
11079;DHT22;5592;49.234;7.268;2024-02-23T00:30:59;6.40;99.90
11079;DHT22;5592;49.234;7.268;2024-02-23T00:33:26;6.30;99.90
11079;DHT22;5592;49.234;7.268;2024-02-23T00:35:52;6.30;99.90
11079;DHT22;5592;49.234;7.268;2024-02-23T00:38:17;6.30;99.90
11079;DHT22;5592;49.234;7.268;2024-02-23T00:40:43;6.30;99.90
11079;DHT22;5592;49.234;7.268;2024-02-23T00:43:08;6.20;99.90
11079;DHT22;5592;49.234;7.268;2024-02-23T00:45:35;6.20;99.90
11079;DHT22;5592;49.234;7.268;2024-02-23T00:48:00;6.20;99.90
11079;DHT22;5592;49.234;7.268;2024-02-23T00:50:26;6.30;99.90
11079;DHT22;5592;49.234;7.268;2024-02-23T00:52:52;6.10;99.90
11079;DHT22;5592;49.234;7.268;2024-02-23T00:55:18;5.80;99.90
11079;DHT22;5592;49.234;7.268;2024-02-23T00:57:44;5.60;99.90
11079;DHT22;5592;49.234;7.268;2024-02-23T01:00:11;5.50;99.90
11079;DHT22;5592;49.234;7.268;2024-02-23T01:02:37;5.40;99.90
11079;DHT22;5592;49.234;7.268;2024-02-23T01:05:04;5.30;99.90
11079;DHT22;5592;49.234;7.268;2024-02-23T01:07:30;5.20;99.90
11079;DHT22;5592;49.234;7.268;2024-02-23T01:09:55;5.20;99.90
11079;DHT22;5592;49.234;7.268;2024-02-23T01:12:21;5.10;99.90
11079;DHT22;5592;49.234;7.268;2024-02-23T01:14:47;5.00;99.90
11079;DHT22;5592;49.234;7.268;2024-02-23T01:17:14;4.90;99.90
11079;DHT22;5592;49.234;7.268;2024-02-23T01:19:41;4.90;99.90
11079;DHT22;5592;49.234;7.268;2024-02-23T01:22:06;4.90;99.90
11079;DHT22;5592;49.234;7.268;2024-02-23T01:24:32;4.80;99.90
11079;DHT22;5592;49.234;7.268;2024-02-23T01:26:58;4.80;99.90
11079;DHT22;5592;49.234;7.268;2024-02-23T01:29:26;4.80;99.90
11079;DHT22;5592;49.234;7.268;2024-02-23T01:31:51;4.80;99.90
11079;DHT22;5592;49.234;7.268;2024-02-23T01:34:20;4.90;99.90
11079;DHT22;5592;49.234;7.268;2024-02-23T01:36:45;4.90;99.90
11079;DHT22;5592;49.234;7.268;2024-02-23T01:39:11;5.10;99.90
11079;DHT22;5592;49.234;7.268;2024-02-23T01:41:36;5.10;99.90
11079;DHT22;5592;49.234;7.268;2024-02-23T01:44:02;5.30;99.90
11079;DHT22;5592;49.234;7.268;2024-02-23T01:46:28;5.30;99.90
11079;DHT22;5592;49.234;7.268;2024-02-23T01:48:53;5.40;99.90
11079;DHT22;5592;49.234;7.268;2024-02-23T01:51:19;5.30;99.90
11079;DHT22;5592;49.234;7.268;2024-02-23T01:53:46;5.30;99.90
11079;DHT22;5592;49.234;7.268;2024-02-23T01:56:12;5.20;99.90
11079;DHT22;5592;49.234;7.268;2024-02-23T01:58:43;5.20;99.90
11079;DHT22;5592;49.234;7.268;2024-02-23T02:01:09;5.10;99.90
11079;DHT22;5592;49.234;7.268;2024-02-23T02:03:35;5.10;99.90
11079;DHT22;5592;49.234;7.268;2024-02-23T02:06:01;5.10;99.90
11079;DHT22;5592;49.234;7.268;2024-02-23T02:08:27;5.00;99.90
11079;DHT22;5592;49.234;7.268;2024-02-23T02:10:53;5.00;99.90
11079;DHT22;5592;49.234;7.268;2024-02-23T02:13:19;5.00;99.90
11079;DHT22;5592;49.234;7.268;2024-02-23T02:15:44;5.00;99.90
11079;DHT22;5592;49.234;7.268;2024-02-23T02:18:10;5.00;99.90
11079;DHT22;5592;49.234;7.268;2024-02-23T02:20:36;5.00;99.90
11079;DHT22;5592;49.234;7.268;2024-02-23T02:23:02;5.00;99.90
11079;DHT22;5592;49.234;7.268;2024-02-23T02:25:28;4.90;99.90
11079;DHT22;5592;49.234;7.268;2024-02-23T02:27:54;4.90;99.90
11079;DHT22;5592;49.234;7.268;2024-02-23T02:30:20;4.90;99.90
11079;DHT22;5592;49.234;7.268;2024-02-23T02:32:46;4.90;99.90
11079;DHT22;5592;49.234;7.268;2024-02-23T02:35:12;4.90;99.90
11079;DHT22;5592;49.234;7.268;2024-02-23T02:37:38;4.80;99.90
11079;DHT22;5592;49.234;7.268;2024-02-23T02:40:04;4.70;99.90
11079;DHT22;5592;49.234;7.268;2024-02-23T02:42:30;4.70;99.90
11079;DHT22;5592;49.234;7.268;2024-02-23T02:44:56;4.60;99.90
11079;DHT22;5592;49.234;7.268;2024-02-23T02:47:21;4.50;99.90
11079;DHT22;5592;49.234;7.268;2024-02-23T02:49:48;4.50;99.90
11079;DHT22;5592;49.234;7.268;2024-02-23T02:52:14;4.40;99.90
11079;DHT22;5592;49.234;7.268;2024-02-23T02:54:39;4.50;99.90
11079;DHT22;5592;49.234;7.268;2024-02-23T02:57:05;4.50;99.90
11079;DHT22;5592;49.234;7.268;2024-02-23T02:59:34;4.50;99.90
11079;DHT22;5592;49.234;7.268;2024-02-23T03:02:00;4.50;99.90
11079;DHT22;5592;49.234;7.268;2024-02-23T03:04:25;4.50;99.90
11079;DHT22;5592;49.234;7.268;2024-02-23T03:06:51;4.50;99.90
11079;DHT22;5592;49.234;7.268;2024-02-23T03:09:16;4.50;99.90
11079;DHT22;5592;49.234;7.268;2024-02-23T03:11:45;4.50;99.90
11079;DHT22;5592;49.234;7.268;2024-02-23T03:14:10;4.40;99.90
11079;DHT22;5592;49.234;7.268;2024-02-23T03:16:36;4.40;99.90
11079;DHT22;5592;49.234;7.268;2024-02-23T03:19:03;4.40;99.90
11079;DHT22;5592;49.234;7.268;2024-02-23T03:21:29;4.30;99.90
11079;DHT22;5592;49.234;7.268;2024-02-23T03:23:54;4.30;99.90
11079;DHT22;5592;49.234;7.268;2024-02-23T03:26:20;4.30;99.90
11079;DHT22;5592;49.234;7.268;2024-02-23T03:28:45;4.30;99.90
11079;DHT22;5592;49.234;7.268;2024-02-23T03:31:11;4.30;99.90
11079;DHT22;5592;49.234;7.268;2024-02-23T03:33:37;4.30;99.90
11079;DHT22;5592;49.234;7.268;2024-02-23T03:36:03;4.30;99.90
11079;DHT22;5592;49.234;7.268;2024-02-23T03:38:29;4.40;99.90
11079;DHT22;5592;49.234;7.268;2024-02-23T03:40:55;4.30;99.90
11079;DHT22;5592;49.234;7.268;2024-02-23T03:43:21;4.30;99.90
11079;DHT22;5592;49.234;7.268;2024-02-23T03:45:46;4.30;99.90
11079;DHT22;5592;49.234;7.268;2024-02-23T03:48:12;4.30;99.90
11079;DHT22;5592;49.234;7.268;2024-02-23T03:50:37;4.20;99.90
11079;DHT22;5592;49.234;7.268;2024-02-23T03:53:03;4.10;99.90
11079;DHT22;5592;49.234;7.268;2024-02-23T03:55:29;4.00;99.90
11079;DHT22;5592;49.234;7.268;2024-02-23T03:57:54;3.90;99.90
11079;DHT22;5592;49.234;7.268;2024-02-23T04:00:20;3.80;99.90
11079;DHT22;5592;49.234;7.268;2024-02-23T04:02:50;3.70;99.90
11079;DHT22;5592;49.234;7.268;2024-02-23T04:05:15;3.60;99.90
11079;DHT22;5592;49.234;7.268;2024-02-23T04:07:41;3.60;99.90
11079;DHT22;5592;49.234;7.268;2024-02-23T04:10:07;3.60;99.90
11079;DHT22;5592;49.234;7.268;2024-02-23T04:12:32;3.50;99.90
11079;DHT22;5592;49.234;7.268;2024-02-23T04:14:58;3.50;99.90
11079;DHT22;5592;49.234;7.268;2024-02-23T04:17:24;3.50;99.90
11079;DHT22;5592;49.234;7.268;2024-02-23T04:19:49;3.50;99.90
11079;DHT22;5592;49.234;7.268;2024-02-23T04:22:15;3.50;99.90
11079;DHT22;5592;49.234;7.268;2024-02-23T04:24:41;3.50;99.90
11079;DHT22;5592;49.234;7.268;2024-02-23T04:27:07;3.50;99.90
11079;DHT22;5592;49.234;7.268;2024-02-23T04:29:33;3.50;99.90
11079;DHT22;5592;49.234;7.268;2024-02-23T04:32:02;3.50;99.90
11079;DHT22;5592;49.234;7.268;2024-02-23T04:34:28;3.40;99.90
11079;DHT22;5592;49.234;7.268;2024-02-23T04:36:54;3.50;99.90
11079;DHT22;5592;49.234;7.268;2024-02-23T04:39:21;3.50;99.90
11079;DHT22;5592;49.234;7.268;2024-02-23T04:41:47;3.50;99.90
11079;DHT22;5592;49.234;7.268;2024-02-23T04:44:12;3.60;99.90
11079;DHT22;5592;49.234;7.268;2024-02-23T04:46:38;3.60;99.90
11079;DHT22;5592;49.234;7.268;2024-02-23T04:49:03;3.70;99.90
11079;DHT22;5592;49.234;7.268;2024-02-23T04:51:29;3.70;99.90
11079;DHT22;5592;49.234;7.268;2024-02-23T04:53:54;3.80;99.90
11079;DHT22;5592;49.234;7.268;2024-02-23T04:56:20;3.80;99.90
11079;DHT22;5592;49.234;7.268;2024-02-23T04:58:46;3.80;99.90
11079;DHT22;5592;49.234;7.268;2024-02-23T05:01:12;3.90;99.90
11079;DHT22;5592;49.234;7.268;2024-02-23T05:03:37;3.80;99.90
11079;DHT22;5592;49.234;7.268;2024-02-23T05:06:04;3.70;99.90
11079;DHT22;5592;49.234;7.268;2024-02-23T05:08:30;3.60;99.90
11079;DHT22;5592;49.234;7.268;2024-02-23T05:10:56;3.60;99.90
11079;DHT22;5592;49.234;7.268;2024-02-23T05:13:22;3.50;99.90
11079;DHT22;5592;49.234;7.268;2024-02-23T05:15:48;3.40;99.90
11079;DHT22;5592;49.234;7.268;2024-02-23T05:18:13;3.30;99.90
11079;DHT22;5592;49.234;7.268;2024-02-23T05:20:39;3.30;99.90
11079;DHT22;5592;49.234;7.268;2024-02-23T05:23:04;3.20;99.90
11079;DHT22;5592;49.234;7.268;2024-02-23T05:25:30;3.20;99.90
11079;DHT22;5592;49.234;7.268;2024-02-23T05:27:56;3.20;99.90
11079;DHT22;5592;49.234;7.268;2024-02-23T05:30:21;3.10;99.90
11079;DHT22;5592;49.234;7.268;2024-02-23T05:32:47;3.10;99.90
11079;DHT22;5592;49.234;7.268;2024-02-23T05:35:13;3.00;99.90
11079;DHT22;5592;49.234;7.268;2024-02-23T05:37:38;2.90;99.90
11079;DHT22;5592;49.234;7.268;2024-02-23T05:40:04;2.80;99.90
11079;DHT22;5592;49.234;7.268;2024-02-23T05:42:38;2.80;99.90
11079;DHT22;5592;49.234;7.268;2024-02-23T05:45:04;2.70;99.90
11079;DHT22;5592;49.234;7.268;2024-02-23T05:47:35;2.70;99.90
11079;DHT22;5592;49.234;7.268;2024-02-23T05:50:02;2.60;99.90
11079;DHT22;5592;49.234;7.268;2024-02-23T05:52:28;2.50;99.90
11079;DHT22;5592;49.234;7.268;2024-02-23T05:54:53;2.50;99.90
11079;DHT22;5592;49.234;7.268;2024-02-23T05:57:21;2.50;99.90
11079;DHT22;5592;49.234;7.268;2024-02-23T05:59:46;2.60;99.90
11079;DHT22;5592;49.234;7.268;2024-02-23T06:02:12;2.60;99.90
11079;DHT22;5592;49.234;7.268;2024-02-23T06:04:41;2.60;99.90
11079;DHT22;5592;49.234;7.268;2024-02-23T06:07:06;2.50;99.90
11079;DHT22;5592;49.234;7.268;2024-02-23T06:09:32;2.50;99.90
11079;DHT22;5592;49.234;7.268;2024-02-23T06:11:57;2.40;99.90
11079;DHT22;5592;49.234;7.268;2024-02-23T06:14:23;2.30;99.90
11079;DHT22;5592;49.234;7.268;2024-02-23T06:16:49;2.40;99.90
11079;DHT22;5592;49.234;7.268;2024-02-23T06:19:15;2.40;99.90
11079;DHT22;5592;49.234;7.268;2024-02-23T06:21:40;2.50;99.90
11079;DHT22;5592;49.234;7.268;2024-02-23T06:24:06;2.40;99.90
11079;DHT22;5592;49.234;7.268;2024-02-23T06:26:34;2.30;99.90
11079;DHT22;5592;49.234;7.268;2024-02-23T06:28:59;2.30;99.90
11079;DHT22;5592;49.234;7.268;2024-02-23T06:31:25;2.40;99.90
11079;DHT22;5592;49.234;7.268;2024-02-23T06:33:51;2.50;99.90
11079;DHT22;5592;49.234;7.268;2024-02-23T06:36:18;2.70;99.90
11079;DHT22;5592;49.234;7.268;2024-02-23T06:38:46;2.80;99.90
11079;DHT22;5592;49.234;7.268;2024-02-23T06:41:13;2.90;99.90
11079;DHT22;5592;49.234;7.268;2024-02-23T06:43:38;3.00;99.90
11079;DHT22;5592;49.234;7.268;2024-02-23T06:46:08;3.00;99.90
11079;DHT22;5592;49.234;7.268;2024-02-23T06:48:35;3.00;99.90
11079;DHT22;5592;49.234;7.268;2024-02-23T06:51:02;3.00;99.90
11079;DHT22;5592;49.234;7.268;2024-02-23T06:53:29;3.10;99.90
11079;DHT22;5592;49.234;7.268;2024-02-23T06:55:54;3.20;99.90
11079;DHT22;5592;49.234;7.268;2024-02-23T06:58:20;3.30;99.90
11079;DHT22;5592;49.234;7.268;2024-02-23T07:00:46;3.40;99.90
11079;DHT22;5592;49.234;7.268;2024-02-23T07:03:11;3.50;99.90
11079;DHT22;5592;49.234;7.268;2024-02-23T07:05:37;3.60;99.90
11079;DHT22;5592;49.234;7.268;2024-02-23T07:08:03;3.60;99.90
11079;DHT22;5592;49.234;7.268;2024-02-23T07:10:28;3.70;99.90
11079;DHT22;5592;49.234;7.268;2024-02-23T07:12:54;3.80;99.90
11079;DHT22;5592;49.234;7.268;2024-02-23T07:15:21;3.80;99.90
11079;DHT22;5592;49.234;7.268;2024-02-23T07:17:47;3.90;99.90
11079;DHT22;5592;49.234;7.268;2024-02-23T07:20:13;4.20;99.90
11079;DHT22;5592;49.234;7.268;2024-02-23T07:22:38;4.50;99.90
11079;DHT22;5592;49.234;7.268;2024-02-23T07:25:05;4.80;99.90
11079;DHT22;5592;49.234;7.268;2024-02-23T07:27:31;5.20;99.90
11079;DHT22;5592;49.234;7.268;2024-02-23T07:29:57;5.70;99.90
11079;DHT22;5592;49.234;7.268;2024-02-23T07:32:26;5.80;99.90
11079;DHT22;5592;49.234;7.268;2024-02-23T07:34:52;5.90;99.90
11079;DHT22;5592;49.234;7.268;2024-02-23T07:37:18;6.10;99.90
11079;DHT22;5592;49.234;7.268;2024-02-23T07:39:43;6.60;99.90
11079;DHT22;5592;49.234;7.268;2024-02-23T07:42:09;7.20;99.90
11079;DHT22;5592;49.234;7.268;2024-02-23T07:44:36;7.70;99.90
11079;DHT22;5592;49.234;7.268;2024-02-23T07:47:03;7.90;99.90
11079;DHT22;5592;49.234;7.268;2024-02-23T07:49:28;8.20;99.90
11079;DHT22;5592;49.234;7.268;2024-02-23T07:51:54;8.00;99.90
11079;DHT22;5592;49.234;7.268;2024-02-23T07:54:19;7.80;99.90
11079;DHT22;5592;49.234;7.268;2024-02-23T07:56:45;8.10;99.90
11079;DHT22;5592;49.234;7.268;2024-02-23T07:59:10;8.50;99.90
11079;DHT22;5592;49.234;7.268;2024-02-23T08:01:38;9.10;99.90
11079;DHT22;5592;49.234;7.268;2024-02-23T08:04:12;9.30;99.90
11079;DHT22;5592;49.234;7.268;2024-02-23T08:06:50;9.70;99.90
11079;DHT22;5592;49.234;7.268;2024-02-23T08:09:17;9.70;99.90
11079;DHT22;5592;49.234;7.268;2024-02-23T08:11:43;10.40;99.90
11079;DHT22;5592;49.234;7.268;2024-02-23T08:14:09;10.40;99.90
11079;DHT22;5592;49.234;7.268;2024-02-23T08:16:34;10.30;99.90
11079;DHT22;5592;49.234;7.268;2024-02-23T08:19:01;10.00;99.90
11079;DHT22;5592;49.234;7.268;2024-02-23T08:21:30;9.80;99.90
11079;DHT22;5592;49.234;7.268;2024-02-23T08:24:02;9.80;99.90
11079;DHT22;5592;49.234;7.268;2024-02-23T08:26:28;9.40;99.90
11079;DHT22;5592;49.234;7.268;2024-02-23T08:28:54;9.00;99.90
11079;DHT22;5592;49.234;7.268;2024-02-23T08:31:20;8.70;99.90
11079;DHT22;5592;49.234;7.268;2024-02-23T08:33:45;8.40;99.90
11079;DHT22;5592;49.234;7.268;2024-02-23T08:36:12;8.90;99.90
11079;DHT22;5592;49.234;7.268;2024-02-23T08:38:38;9.20;99.90
11079;DHT22;5592;49.234;7.268;2024-02-23T08:41:03;9.30;99.90
11079;DHT22;5592;49.234;7.268;2024-02-23T08:43:29;9.30;99.90
11079;DHT22;5592;49.234;7.268;2024-02-23T08:45:54;9.80;99.90
11079;DHT22;5592;49.234;7.268;2024-02-23T08:48:21;9.70;99.90
11079;DHT22;5592;49.234;7.268;2024-02-23T08:51:10;9.60;99.90
11079;DHT22;5592;49.234;7.268;2024-02-23T08:53:40;9.10;99.90
11079;DHT22;5592;49.234;7.268;2024-02-23T08:56:07;9.00;99.90
11079;DHT22;5592;49.234;7.268;2024-02-23T08:58:33;8.70;99.90
11079;DHT22;5592;49.234;7.268;2024-02-23T09:01:00;8.30;99.90
11079;DHT22;5592;49.234;7.268;2024-02-23T09:03:25;8.10;99.90
11079;DHT22;5592;49.234;7.268;2024-02-23T09:05:51;7.60;99.90
11079;DHT22;5592;49.234;7.268;2024-02-23T09:08:16;7.50;99.90
11079;DHT22;5592;49.234;7.268;2024-02-23T09:10:43;7.40;99.90
11079;DHT22;5592;49.234;7.268;2024-02-23T09:13:10;7.30;99.90
11079;DHT22;5592;49.234;7.268;2024-02-23T09:15:36;7.20;99.90
11079;DHT22;5592;49.234;7.268;2024-02-23T09:18:02;7.00;99.90
11079;DHT22;5592;49.234;7.268;2024-02-23T09:20:27;7.00;99.90
11079;DHT22;5592;49.234;7.268;2024-02-23T09:22:54;7.10;99.90
11079;DHT22;5592;49.234;7.268;2024-02-23T09:25:20;7.20;99.90
11079;DHT22;5592;49.234;7.268;2024-02-23T09:27:46;7.30;99.90
11079;DHT22;5592;49.234;7.268;2024-02-23T09:30:12;7.20;99.90
11079;DHT22;5592;49.234;7.268;2024-02-23T09:32:40;7.10;99.90
11079;DHT22;5592;49.234;7.268;2024-02-23T09:35:05;7.20;99.90
11079;DHT22;5592;49.234;7.268;2024-02-23T09:37:32;7.20;99.90
11079;DHT22;5592;49.234;7.268;2024-02-23T09:39:57;7.10;99.90
11079;DHT22;5592;49.234;7.268;2024-02-23T09:42:23;6.90;99.90
11079;DHT22;5592;49.234;7.268;2024-02-23T09:44:57;6.80;99.90
11079;DHT22;5592;49.234;7.268;2024-02-23T09:47:28;6.80;99.90
11079;DHT22;5592;49.234;7.268;2024-02-23T09:49:54;6.80;99.90
11079;DHT22;5592;49.234;7.268;2024-02-23T09:52:22;6.70;99.90
11079;DHT22;5592;49.234;7.268;2024-02-23T09:54:49;6.80;99.90
11079;DHT22;5592;49.234;7.268;2024-02-23T09:57:16;6.70;99.90
11079;DHT22;5592;49.234;7.268;2024-02-23T09:59:43;6.90;99.90
11079;DHT22;5592;49.234;7.268;2024-02-23T10:02:09;7.10;99.90
11079;DHT22;5592;49.234;7.268;2024-02-23T10:04:42;7.20;99.90
11079;DHT22;5592;49.234;7.268;2024-02-23T10:07:17;7.40;99.90
11079;DHT22;5592;49.234;7.268;2024-02-23T10:09:44;7.60;99.90
11079;DHT22;5592;49.234;7.268;2024-02-23T10:12:09;7.90;99.90
11079;DHT22;5592;49.234;7.268;2024-02-23T10:14:35;7.90;99.90
11079;DHT22;5592;49.234;7.268;2024-02-23T10:17:00;8.10;99.90
11079;DHT22;5592;49.234;7.268;2024-02-23T10:19:27;8.20;99.90
11079;DHT22;5592;49.234;7.268;2024-02-23T10:21:55;8.10;99.90
11079;DHT22;5592;49.234;7.268;2024-02-23T10:24:22;7.80;99.90
11079;DHT22;5592;49.234;7.268;2024-02-23T10:26:48;7.70;99.90
11079;DHT22;5592;49.234;7.268;2024-02-23T10:29:14;7.70;99.90
11079;DHT22;5592;49.234;7.268;2024-02-23T10:31:40;7.80;99.90
11079;DHT22;5592;49.234;7.268;2024-02-23T10:34:09;7.80;99.90
11079;DHT22;5592;49.234;7.268;2024-02-23T10:36:41;8.20;99.90
11079;DHT22;5592;49.234;7.268;2024-02-23T10:39:08;8.10;99.90
11079;DHT22;5592;49.234;7.268;2024-02-23T10:41:39;8.10;99.90
11079;DHT22;5592;49.234;7.268;2024-02-23T10:44:07;8.20;99.90
11079;DHT22;5592;49.234;7.268;2024-02-23T10:46:34;8.30;99.90
11079;DHT22;5592;49.234;7.268;2024-02-23T10:49:01;8.40;99.90
11079;DHT22;5592;49.234;7.268;2024-02-23T10:51:27;8.50;99.90
11079;DHT22;5592;49.234;7.268;2024-02-23T10:53:53;9.10;99.90
11079;DHT22;5592;49.234;7.268;2024-02-23T10:56:19;9.50;99.90
11079;DHT22;5592;49.234;7.268;2024-02-23T10:58:45;9.40;99.90
11079;DHT22;5592;49.234;7.268;2024-02-23T11:01:12;9.60;99.90
11079;DHT22;5592;49.234;7.268;2024-02-23T11:03:40;9.50;99.90
11079;DHT22;5592;49.234;7.268;2024-02-23T11:06:06;9.50;99.90
11079;DHT22;5592;49.234;7.268;2024-02-23T11:08:33;9.70;99.90
11079;DHT22;5592;49.234;7.268;2024-02-23T11:11:10;10.10;99.90
11079;DHT22;5592;49.234;7.268;2024-02-23T11:13:37;11.30;99.90
11079;DHT22;5592;49.234;7.268;2024-02-23T11:16:04;12.20;99.90
11079;DHT22;5592;49.234;7.268;2024-02-23T11:18:39;12.30;99.90
11079;DHT22;5592;49.234;7.268;2024-02-23T11:21:05;11.80;99.90
11079;DHT22;5592;49.234;7.268;2024-02-23T11:23:41;12.40;99.90
11079;DHT22;5592;49.234;7.268;2024-02-23T11:26:12;13.00;99.90
11079;DHT22;5592;49.234;7.268;2024-02-23T11:28:43;12.30;99.90
11079;DHT22;5592;49.234;7.268;2024-02-23T11:31:16;11.90;99.90
11079;DHT22;5592;49.234;7.268;2024-02-23T11:33:52;11.90;99.90
11079;DHT22;5592;49.234;7.268;2024-02-23T11:36:35;11.90;99.90
11079;DHT22;5592;49.234;7.268;2024-02-23T11:39:02;11.60;99.90
11079;DHT22;5592;49.234;7.268;2024-02-23T11:41:28;11.40;99.90
11079;DHT22;5592;49.234;7.268;2024-02-23T11:43:55;11.10;99.90
11079;DHT22;5592;49.234;7.268;2024-02-23T11:46:22;11.00;99.90
11079;DHT22;5592;49.234;7.268;2024-02-23T11:48:48;10.80;99.90
11079;DHT22;5592;49.234;7.268;2024-02-23T11:51:21;10.50;99.90
11079;DHT22;5592;49.234;7.268;2024-02-23T11:53:47;10.20;99.90
11079;DHT22;5592;49.234;7.268;2024-02-23T11:56:13;10.20;99.90
11079;DHT22;5592;49.234;7.268;2024-02-23T11:58:42;10.60;99.90
11079;DHT22;5592;49.234;7.268;2024-02-23T12:01:08;10.70;99.90
11079;DHT22;5592;49.234;7.268;2024-02-23T12:03:34;10.90;99.90
11079;DHT22;5592;49.234;7.268;2024-02-23T12:06:01;10.50;99.90
11079;DHT22;5592;49.234;7.268;2024-02-23T12:08:30;10.00;99.90
11079;DHT22;5592;49.234;7.268;2024-02-23T12:10:58;9.80;99.90
11079;DHT22;5592;49.234;7.268;2024-02-23T12:13:26;9.70;99.90
11079;DHT22;5592;49.234;7.268;2024-02-23T12:15:53;9.60;99.90
11079;DHT22;5592;49.234;7.268;2024-02-23T12:18:23;9.90;99.90
11079;DHT22;5592;49.234;7.268;2024-02-23T12:20:52;10.00;99.90
11079;DHT22;5592;49.234;7.268;2024-02-23T12:23:17;10.10;99.90
11079;DHT22;5592;49.234;7.268;2024-02-23T12:26:00;10.20;99.90
11079;DHT22;5592;49.234;7.268;2024-02-23T12:28:26;10.30;99.90
11079;DHT22;5592;49.234;7.268;2024-02-23T12:31:02;10.40;99.90
11079;DHT22;5592;49.234;7.268;2024-02-23T12:33:29;10.50;99.90
11079;DHT22;5592;49.234;7.268;2024-02-23T12:35:56;10.50;99.90
11079;DHT22;5592;49.234;7.268;2024-02-23T12:38:24;10.50;99.90
11079;DHT22;5592;49.234;7.268;2024-02-23T12:40:50;10.30;99.90
11079;DHT22;5592;49.234;7.268;2024-02-23T12:43:16;10.10;99.90
11079;DHT22;5592;49.234;7.268;2024-02-23T12:45:42;9.80;99.90
11079;DHT22;5592;49.234;7.268;2024-02-23T12:48:10;10.10;99.90
11079;DHT22;5592;49.234;7.268;2024-02-23T12:50:36;10.30;99.90
11079;DHT22;5592;49.234;7.268;2024-02-23T12:53:02;10.20;99.90
11079;DHT22;5592;49.234;7.268;2024-02-23T12:55:29;10.20;99.90
11079;DHT22;5592;49.234;7.268;2024-02-23T12:57:54;10.20;99.90
11079;DHT22;5592;49.234;7.268;2024-02-23T13:00:20;10.50;99.90
11079;DHT22;5592;49.234;7.268;2024-02-23T13:02:46;10.70;99.90
11079;DHT22;5592;49.234;7.268;2024-02-23T13:05:11;11.00;99.90
11079;DHT22;5592;49.234;7.268;2024-02-23T13:07:37;11.20;99.90
11079;DHT22;5592;49.234;7.268;2024-02-23T13:10:06;10.80;99.90
11079;DHT22;5592;49.234;7.268;2024-02-23T13:12:32;10.60;99.90
11079;DHT22;5592;49.234;7.268;2024-02-23T13:14:57;10.80;99.90
11079;DHT22;5592;49.234;7.268;2024-02-23T13:17:23;11.20;99.90
11079;DHT22;5592;49.234;7.268;2024-02-23T13:19:49;11.30;99.90
11079;DHT22;5592;49.234;7.268;2024-02-23T13:22:15;11.30;99.90
11079;DHT22;5592;49.234;7.268;2024-02-23T13:24:40;11.10;99.90
11079;DHT22;5592;49.234;7.268;2024-02-23T13:27:06;10.80;99.90
11079;DHT22;5592;49.234;7.268;2024-02-23T13:29:32;10.70;99.90
11079;DHT22;5592;49.234;7.268;2024-02-23T13:31:57;10.80;99.90
11079;DHT22;5592;49.234;7.268;2024-02-23T13:34:23;10.60;99.90
11079;DHT22;5592;49.234;7.268;2024-02-23T13:36:48;10.80;99.90
11079;DHT22;5592;49.234;7.268;2024-02-23T13:39:15;10.70;99.90
11079;DHT22;5592;49.234;7.268;2024-02-23T13:41:41;10.70;99.90
11079;DHT22;5592;49.234;7.268;2024-02-23T13:44:07;10.60;99.90
11079;DHT22;5592;49.234;7.268;2024-02-23T13:46:37;10.60;99.90
11079;DHT22;5592;49.234;7.268;2024-02-23T13:49:07;10.70;99.90
11079;DHT22;5592;49.234;7.268;2024-02-23T13:51:33;10.90;99.90
11079;DHT22;5592;49.234;7.268;2024-02-23T13:53:59;10.80;99.90
11079;DHT22;5592;49.234;7.268;2024-02-23T13:56:25;10.70;99.90
11079;DHT22;5592;49.234;7.268;2024-02-23T13:58:50;10.50;99.90
11079;DHT22;5592;49.234;7.268;2024-02-23T14:01:16;10.40;99.90
11079;DHT22;5592;49.234;7.268;2024-02-23T14:03:42;10.40;99.90
11079;DHT22;5592;49.234;7.268;2024-02-23T14:06:08;10.40;99.90
11079;DHT22;5592;49.234;7.268;2024-02-23T14:08:35;10.20;99.90
11079;DHT22;5592;49.234;7.268;2024-02-23T14:11:03;10.20;99.90
11079;DHT22;5592;49.234;7.268;2024-02-23T14:13:31;10.20;99.90
11079;DHT22;5592;49.234;7.268;2024-02-23T14:15:58;10.20;99.90
11079;DHT22;5592;49.234;7.268;2024-02-23T14:18:23;10.10;99.90
11079;DHT22;5592;49.234;7.268;2024-02-23T14:20:49;10.00;99.90
11079;DHT22;5592;49.234;7.268;2024-02-23T14:23:17;9.90;99.90
11079;DHT22;5592;49.234;7.268;2024-02-23T14:25:43;9.80;99.90
11079;DHT22;5592;49.234;7.268;2024-02-23T14:28:08;9.80;99.90
11079;DHT22;5592;49.234;7.268;2024-02-23T14:30:35;9.50;99.90
11079;DHT22;5592;49.234;7.268;2024-02-23T14:33:01;9.00;99.90
11079;DHT22;5592;49.234;7.268;2024-02-23T14:35:26;8.60;99.90
11079;DHT22;5592;49.234;7.268;2024-02-23T14:37:52;8.40;99.90
11079;DHT22;5592;49.234;7.268;2024-02-23T14:40:18;8.00;99.90
11079;DHT22;5592;49.234;7.268;2024-02-23T14:42:44;7.70;99.90
11079;DHT22;5592;49.234;7.268;2024-02-23T14:45:09;7.40;99.90
11079;DHT22;5592;49.234;7.268;2024-02-23T14:47:37;7.20;99.90
11079;DHT22;5592;49.234;7.268;2024-02-23T14:50:03;6.80;99.90
11079;DHT22;5592;49.234;7.268;2024-02-23T14:52:29;6.50;99.90
11079;DHT22;5592;49.234;7.268;2024-02-23T14:54:54;6.30;99.90
11079;DHT22;5592;49.234;7.268;2024-02-23T14:57:20;6.20;99.90
11079;DHT22;5592;49.234;7.268;2024-02-23T14:59:47;6.30;99.90
11079;DHT22;5592;49.234;7.268;2024-02-23T15:02:23;6.40;99.90
11079;DHT22;5592;49.234;7.268;2024-02-23T15:04:49;6.60;99.90
11079;DHT22;5592;49.234;7.268;2024-02-23T15:07:14;6.80;99.90
11079;DHT22;5592;49.234;7.268;2024-02-23T15:09:40;6.90;99.90
11079;DHT22;5592;49.234;7.268;2024-02-23T15:12:06;7.00;99.90
11079;DHT22;5592;49.234;7.268;2024-02-23T15:14:32;7.00;99.90
11079;DHT22;5592;49.234;7.268;2024-02-23T15:17:00;7.00;99.90
11079;DHT22;5592;49.234;7.268;2024-02-23T15:19:26;7.10;99.90
11079;DHT22;5592;49.234;7.268;2024-02-23T15:21:52;7.10;99.90
11079;DHT22;5592;49.234;7.268;2024-02-23T15:24:18;7.30;99.90
11079;DHT22;5592;49.234;7.268;2024-02-23T15:26:45;7.50;99.90
11079;DHT22;5592;49.234;7.268;2024-02-23T15:29:11;7.40;99.90
11079;DHT22;5592;49.234;7.268;2024-02-23T15:31:38;7.30;99.90
11079;DHT22;5592;49.234;7.268;2024-02-23T15:34:05;7.10;99.90
11079;DHT22;5592;49.234;7.268;2024-02-23T15:36:31;7.00;99.90
11079;DHT22;5592;49.234;7.268;2024-02-23T15:38:56;7.00;99.90
11079;DHT22;5592;49.234;7.268;2024-02-23T15:41:32;6.80;99.90
11079;DHT22;5592;49.234;7.268;2024-02-23T15:44:00;6.60;99.90
11079;DHT22;5592;49.234;7.268;2024-02-23T15:46:26;6.50;99.90
11079;DHT22;5592;49.234;7.268;2024-02-23T15:48:52;6.40;99.90
11079;DHT22;5592;49.234;7.268;2024-02-23T15:51:18;6.20;99.90
11079;DHT22;5592;49.234;7.268;2024-02-23T15:53:44;6.10;99.90
11079;DHT22;5592;49.234;7.268;2024-02-23T15:56:10;6.10;99.90